Time;durP1;ratioP1;P1;durP2;ratioP2;P2;SDS_P1;SDS_P2;PMS_P1;PMS_P2;Temp;Humidity;BMP_temperature;BMP_pressure;BME280_temperature;BME280_humidity;BME280_pressure;Samples;Min_cycle;Max_cycle;Signal;HPM_P1;HPM_P2
2021/07/05 10:04:01;;;;;;;;;;;;;;;25.28;43.07;100799.09;4891521;27;9999681;-33
2021/07/05 10:06:26;;;;;;;;;;;;;;;25.44;42.43;100805.25;4284621;28;10000990;-40
2021/07/05 10:08:55;;;;;;;;;;;;;;;25.27;42.74;100808.50;4974342;28;20388;-47
2021/07/05 10:11:23;;;;;;;;;;;;;;;28.04;36.12;100797.31;5013935;28;20286;-35
2021/07/05 10:13:48;;;;;;;;;;;;;;;25.93;40.36;100806.72;5010858;28;19924;-46
2021/07/05 10:16:13;;;;;;;;;;;;;;;24.50;42.90;100808.59;4916745;28;20027;-33
2021/07/05 10:18:44;;;;;;;;;;;;;;;24.16;43.49;100803.09;5015836;28;20005;-30
2021/07/05 10:21:10;;;;;;;;;;;;;;;24.10;43.71;100808.69;5009685;28;19972;-31
2021/07/05 10:23:36;;;;;;;;;;;;;;;23.97;44.40;100806.59;5018365;28;20349;-32
2021/07/05 10:26:01;;;;;;;;;;;;;;;23.96;44.45;100809.63;5029446;28;19948;-33
2021/07/05 10:28:26;;;;;;;;;;;;;;;-145.97;100.00;64257.31;5030628;28;20343;-32
2021/07/05 10:30:53;;;;;;;;;;;;;;;-145.97;100.00;64257.31;4964546;28;19921;-30
2021/07/05 10:33:19;;;;;;;;;;;;;;;-145.97;100.00;64257.31;5030708;28;19925;-32
2021/07/05 10:35:45;;;;;;;;;;;;;;;-145.97;100.00;64257.31;5030670;28;19921;-31
2021/07/05 10:38:14;;;;;;;;;;;;;;;-145.97;100.00;64257.31;5029280;28;19925;-31
2021/07/05 10:40:41;;;;;;;;;;;;;;;-145.97;100.00;64257.31;5030373;28;19921;-28
2021/07/05 10:43:06;;;;;;;;;;;;;;;-145.97;100.00;64257.31;5028767;28;20288;-29
2021/07/05 10:45:39;;;;;;;;;;;;;;;-145.97;100.00;64257.31;5012865;28;20028;-32
2021/07/05 10:48:05;;;;;;;;;;;;;;;-145.97;100.00;64257.31;5012799;28;19917;-29
2021/07/05 10:50:41;;;;;;;;;;;;;;;-145.97;100.00;64257.31;5030047;28;20289;-30
2021/07/05 10:55:59;;;;;;;;;;;;;;;23.88;46.53;100814.66;5090953;27;19974;-63
2021/07/05 10:58:29;;;;;;;;;;;;;;;23.94;46.13;100809.09;5123882;28;20279;-60
2021/07/05 11:00:55;;;;;;;;;;;;;;;24.09;47.12;100812.56;5091092;28;20004;-69
2021/07/05 11:03:35;;;;;;;;;;;;;;;24.36;45.59;100806.50;5123691;28;19963;-51
2021/07/05 11:06:01;;;;;;;;;;;;;;;24.57;45.64;100809.09;5090733;28;20355;-61
2021/07/05 11:08:26;;;;;;;;;;;;;;;24.45;45.89;100809.47;5091249;28;19960;-64
2021/07/05 11:31:28;;;;;;;14.00;10.07;;;;;;;23.56;48.24;100786.69;4857368;27;1265215;-56
2021/07/05 11:33:53;;;;;;;11.57;6.93;;;;;;;23.49;48.96;100816.59;4896574;28;20057;-60
2021/07/05 11:36:22;;;;;;;7.30;6.63;;;;;;;23.51;49.03;100822.63;4980569;28;20067;-58
2021/07/05 11:38:58;;;;;;;10.25;7.20;;;;;;;23.46;48.93;100808.88;5060000;28;20040;-59
2021/07/05 11:41:25;;;;;;;20.90;11.30;;;;;;;-145.97;100.00;64257.31;5065614;28;20116;-49
2021/07/05 12:02:19;;;;;;;7.70;4.13;;;;;;;;;;5070199;28;20371;-69
2021/07/05 12:08:31;;;;;;;6.50;4.13;;;;;;;;;;10452727;27;20402;-71
2021/07/05 12:13:32;;;;;;;5.45;4.88;;;;;;;;;;10319197;28;20055;-75
2021/07/05 12:18:32;;;;;;;6.72;5.70;;;;;;;;;;10289194;28;114651;-76
2021/07/05 12:31:10;;;;;;;10.27;3.92;;;;;;;25.44;41.68;100663.84;10342297;28;20393;-52
2021/07/05 12:40:41;;;;;;;4.25;2.85;;;;;;;23.69;45.26;100790.78;10342932;27;20401;-64
2021/07/05 12:45:43;;;;;;;4.20;3.08;;;;;;;24.13;44.15;100769.38;10412462;28;20048;-63
2021/07/05 12:50:55;;;;;;;2.55;2.30;;;;;;;25.82;41.85;100783.06;10490627;28;20060;-62
2021/07/05 12:56:03;;;;;;;3.33;2.88;;;;;;;25.85;40.73;100772.19;10448678;28;20021;-63
2021/07/05 13:01:05;;;;;;;4.43;2.40;;;;;;;25.22;41.57;100778.09;10447929;28;20374;-63
2021/07/05 13:06:10;;;;;;;2.25;2.15;;;;;;;25.46;41.40;100747.53;10375872;28;20061;-62
2021/07/05 13:11:14;;;;;;;2.90;2.65;;;;;;;25.24;41.38;100601.28;10448013;28;20080;-61
2021/07/05 13:16:17;;;;;;;3.15;2.90;;;;;;;26.46;41.12;100789.69;10448361;28;20119;-63
2021/07/05 13:21:31;;;;;;;5.47;3.30;;;;;;;26.28;41.00;100779.47;10449084;28;20048;-61
2021/07/05 13:26:34;;;;;;;3.63;3.33;;;;;;;26.33;41.25;100802.41;10389891;28;20059;-67
2021/07/05 13:31:35;;;;;;;3.70;3.30;;;;;;;26.16;41.39;100775.25;10489039;28;20033;-65
2021/07/05 13:36:35;;;;;;;3.42;3.00;;;;;;;26.84;41.06;100786.72;10488150;28;20053;-66
2021/07/05 13:41:36;;;;;;;3.75;3.38;;;;;;;26.42;40.65;100749.78;10490137;28;20437;-66
2021/07/05 13:46:36;;;;;;;7.20;4.25;;;;;;;27.21;40.21;100762.59;10488816;28;20037;-66
2021/07/05 13:51:37;;;;;;;13.32;4.15;;;;;;;26.07;41.91;100777.06;10446170;28;20040;-65
2021/07/05 13:56:37;;;;;;;5.25;4.85;;;;;;;24.97;43.85;100766.22;10438158;28;20036;-69
2021/07/05 14:01:37;;;;;;;3.88;3.50;;;;;;;24.86;43.68;100777.75;10419457;28;20052;-66
2021/07/05 14:06:38;;;;;;;3.65;2.63;;;;;;;24.14;42.85;100624.38;10420136;28;20116;-68
2021/07/05 14:11:38;;;;;;;2.38;2.28;;;;;;;25.44;40.25;100758.94;10419472;28;20026;-62
2021/07/05 14:16:39;;;;;;;2.40;2.20;;;;;;;25.67;40.44;100761.91;10419306;28;20074;-65
2021/07/05 14:21:39;;;;;;;5.78;3.63;;;;;;;27.05;39.38;100751.78;10401606;28;20056;-64
2021/07/05 14:26:39;;;;;;;3.05;2.85;;;;;;;26.64;40.23;100762.94;10397211;28;20055;-66
2021/07/05 14:31:40;;;;;;;2.78;1.90;;;;;;;27.40;38.23;100729.06;10421153;28;20527;-65
2021/07/05 14:36:40;;;;;;;3.55;2.83;;;;;;;27.28;37.10;100716.56;10417404;28;20057;-64
2021/07/05 14:41:41;;;;;;;3.03;2.05;;;;;;;26.65;37.78;100598.78;10419797;28;20473;-65
2021/07/05 14:46:41;;;;;;;2.40;1.73;;;;;;;26.93;37.29;100745.13;10418532;28;20512;-66
2021/07/05 14:51:42;;;;;;;1.73;1.63;;;;;;;26.34;38.10;100736.59;10384414;28;20108;-65
2021/07/05 14:56:42;;;;;;;2.70;2.50;;;;;;;25.76;39.06;100696.28;10417406;28;20075;-64
2021/07/05 15:01:43;;;;;;;1.85;1.75;;;;;;;25.55;39.97;100731.03;10417323;28;20460;-65
2021/07/05 15:06:43;;;;;;;1.70;1.60;;;;;;;25.74;40.03;100718.78;10418070;28;20125;-64
2021/07/05 15:11:43;;;;;;;9.13;2.75;;;;;;;24.54;40.11;100621.44;10417241;28;20075;-64
2021/07/05 15:16:44;;;;;;;1.52;1.50;;;;;;;25.67;40.12;100731.41;10416193;28;20034;-65
2021/07/05 15:21:44;;;;;;;2.63;1.95;;;;;;;24.90;39.63;100590.44;10416287;28;20449;-64
2021/07/05 15:26:45;;;;;;;2.20;1.92;;;;;;;25.92;40.08;100730.16;10415270;28;20127;-65
2021/07/05 15:31:45;;;;;;;2.67;2.47;;;;;;;25.59;40.53;100759.81;10399117;28;20128;-65
2021/07/05 15:36:46;;;;;;;3.92;2.50;;;;;;;25.00;43.35;100720.47;10398876;28;20088;-64
2021/07/05 15:41:46;;;;;;;2.75;2.55;;;;;;;25.04;43.64;100747.28;10417310;28;20246;-65
2021/07/05 15:46:47;;;;;;;2.70;2.50;;;;;;;23.89;43.64;100550.81;10417457;28;20042;-66
2021/07/05 15:51:47;;;;;;;2.45;2.35;;;;;;;23.85;43.66;100549.78;10382077;28;20063;-66
2021/07/05 15:56:47;;;;;;;2.95;2.75;;;;;;;25.51;42.21;100723.31;10415790;28;20461;-65
2021/07/05 16:01:48;;;;;;;4.22;1.83;;;;;;;25.66;41.88;100716.72;10397405;28;20405;-64
2021/07/05 16:06:48;;;;;;;2.22;2.13;;;;;;;25.48;42.92;100714.78;10397912;28;20071;-65
2021/07/05 16:11:49;;;;;;;2.65;2.55;;;;;;;24.56;43.65;100699.44;10415325;28;20057;-64
2021/07/05 16:16:49;;;;;;;2.53;1.92;;;;;;;25.04;42.18;100713.19;10414064;28;20129;-65
2021/07/05 16:21:51;;;;;;;2.50;2.38;;;;;;;24.73;42.80;100691.50;10415408;28;20044;-64
2021/07/05 16:26:51;;;;;;;2.90;2.70;;;;;;;24.62;42.82;100678.06;10413240;28;20033;-64
2021/07/05 16:31:52;;;;;;;2.67;2.47;;;;;;;24.94;42.99;100693.97;10397316;28;20053;-65
2021/07/05 16:36:54;;;;;;;2.90;2.72;;;;;;;24.36;44.13;100684.72;10414698;28;20050;-64
2021/07/05 16:41:56;;;;;;;4.18;3.10;;;;;;;23.41;45.51;100641.13;10414490;28;20080;-65
2021/07/05 16:46:57;;;;;;;6.00;2.65;;;;;;;23.34;45.58;100676.56;10397431;28;20041;-66
2021/07/05 16:57:07;;;;;;;5.80;3.63;;;;;;;22.93;46.86;100627.13;10412737;28;20025;-65
2021/07/05 17:02:08;;;;;;;2.92;2.72;;;;;;;23.50;46.63;100691.09;10414833;28;20034;-65
2021/07/05 17:07:08;;;;;;;3.55;3.15;;;;;;;23.40;46.17;100654.13;10413397;28;20109;-65
2021/07/05 17:12:09;;;;;;;4.65;3.10;;;;;;;23.60;46.29;100683.53;10414322;28;20033;-65
2021/07/05 17:17:09;;;;;;;6.25;3.03;;;;;;;23.18;45.78;100593.00;10414218;28;20079;-65
2021/07/05 17:22:10;;;;;;;6.03;3.13;;;;;;;23.89;45.76;100689.09;10413473;28;20211;-65
2021/07/05 17:27:10;;;;;;;2.42;2.33;;;;;;;23.66;46.15;100673.25;10420790;28;20503;-65
2021/07/05 17:32:11;;;;;;;15.27;8.15;;;;;;;23.62;45.68;100686.03;10421839;28;20067;-65
2021/07/05 17:37:11;;;;;;;3.45;3.15;;;;;;;23.52;47.35;100699.94;10421631;28;20080;-66
2021/07/05 17:42:12;;;;;;;4.32;3.92;;;;;;;23.81;46.87;100681.44;10403626;28;20500;-66
2021/07/05 17:47:12;;;;;;;3.40;2.80;;;;;;;23.93;46.62;100710.63;10421459;28;20033;-65
2021/07/05 17:52:13;;;;;;;3.40;3.15;;;;;;;23.77;47.16;100693.38;10419908;28;20037;-66
2021/07/05 17:57:17;;;;;;;3.20;2.95;;;;;;;23.61;46.67;100692.66;10418629;28;20029;-65
2021/07/05 18:02:17;;;;;;;5.07;3.08;;;;;;;22.97;48.24;100658.59;10420968;28;20477;-64
2021/07/05 18:07:18;;;;;;;11.55;4.60;;;;;;;23.46;47.75;100670.69;10419124;28;20037;-65
2021/07/05 18:12:19;;;;;;;4.85;4.45;;;;;;;22.15;48.88;100545.88;10402568;28;20053;-64
2021/07/05 18:17:19;;;;;;;3.50;3.30;;;;;;;22.85;49.96;100683.78;10418488;28;20037;-65
2021/07/05 18:22:20;;;;;;;7.93;4.68;;;;;;;22.79;49.91;100667.53;10419824;28;20037;-65
2021/07/05 18:27:21;;;;;;;4.90;4.28;;;;;;;22.48;51.29;100651.13;10417574;28;20469;-64
2021/07/05 18:32:22;;;;;;;3.67;3.25;;;;;;;22.51;51.93;100667.94;10417978;28;20037;-65
2021/07/05 18:37:22;;;;;;;5.78;3.92;;;;;;;22.20;51.99;100625.03;10361538;28;20401;-60
2021/07/05 18:42:23;;;;;;;13.20;4.43;;;;;;;22.41;51.49;100643.16;10402823;28;20485;-61
2021/07/05 18:47:23;;;;;;;3.40;3.20;;;;;;;22.28;52.17;100633.56;10417297;28;20120;-62
2021/07/05 18:52:24;;;;;;;4.03;3.72;;;;;;;22.18;52.39;100630.03;10417437;28;20478;-62
2021/07/05 18:57:24;;;;;;;9.95;4.53;;;;;;;22.21;51.95;100630.28;10423050;28;20072;-62
2021/07/05 19:02:25;;;;;;;4.25;3.90;;;;;;;22.19;51.71;100634.41;10417063;28;20046;-63
2021/07/05 19:07:25;;;;;;;4.32;4.03;;;;;;;22.03;52.06;100617.88;10418123;28;20033;-62
2021/07/05 19:12:25;;;;;;;3.72;3.42;;;;;;;21.68;51.89;100569.22;10416509;28;20041;-62
2021/07/05 19:17:26;;;;;;;3.83;3.53;;;;;;;20.58;51.63;100389.03;10417597;28;20107;-62
2021/07/05 19:22:28;;;;;;;2.50;2.30;;;;;;;21.76;53.77;100623.78;10417298;28;20041;-61
2021/07/05 19:27:28;;;;;;;6.85;3.20;;;;;;;21.59;54.49;100617.72;10416701;28;20074;-61
2021/07/05 19:32:29;;;;;;;3.25;2.72;;;;;;;21.44;53.49;100580.03;10399263;28;20095;-62
2021/07/05 19:37:29;;;;;;;6.22;3.58;;;;;;;20.62;54.61;100469.91;10416347;28;20053;-62
2021/07/05 19:42:30;;;;;;;3.83;3.53;;;;;;;21.62;54.07;100625.44;10415270;28;20460;-61
2021/07/05 19:47:31;;;;;;;4.05;3.03;;;;;;;21.51;54.29;100618.31;10398268;28;20030;-67
2021/07/05 19:52:32;;;;;;;2.53;2.35;;;;;;;21.59;53.86;100613.03;10415200;28;20397;-69
2021/07/05 19:57:32;;;;;;;4.43;3.25;;;;;;;19.88;54.40;100358.47;10414177;28;20032;-70
2021/07/05 20:02:33;;;;;;;2.72;2.53;;;;;;;21.48;54.45;100627.94;10416318;28;20030;-68
2021/07/05 20:07:33;;;;;;;6.00;3.08;;;;;;;20.04;55.07;100399.69;10303118;28;22666;-65
2021/07/05 20:12:34;;;;;;;4.80;3.60;;;;;;;21.09;56.37;100627.63;10414213;28;20060;-65
2021/07/05 20:17:34;;;;;;;3.78;3.47;;;;;;;21.35;55.91;100625.75;10397875;28;20029;-65
2021/07/05 20:22:35;;;;;;;4.53;4.13;;;;;;;21.40;56.10;100606.44;10413980;28;20057;-66
2021/07/05 20:27:35;;;;;;;12.38;4.90;;;;;;;21.16;57.22;100570.38;10414509;28;20138;-66
2021/07/05 20:32:36;;;;;;;7.88;4.60;;;;;;;21.29;57.57;100594.59;10420018;28;20441;-65
2021/07/05 20:37:37;;;;;;;7.13;4.88;;;;;;;21.24;58.27;100588.25;10414428;28;20220;-67
2021/07/05 20:42:37;;;;;;;5.05;4.47;;;;;;;21.01;59.11;100576.69;10414524;28;20113;-66
2021/07/05 20:47:38;;;;;;;6.03;5.53;;;;;;;20.90;60.03;100589.63;10398381;28;20118;-67
2021/07/05 20:52:38;;;;;;;7.47;6.78;;;;;;;20.63;61.70;100581.59;10415786;28;20037;-65
2021/07/05 20:57:39;;;;;;;7.97;6.43;;;;;;;19.05;62.70;100353.78;10414634;28;20029;-66
2021/07/05 21:02:40;;;;;;;7.43;6.63;;;;;;;20.38;62.54;100548.50;10422293;28;20352;-66
2021/07/05 21:07:41;;;;;;;6.45;5.85;;;;;;;20.32;63.00;100530.34;10421538;28;20142;-66
2021/07/05 21:12:42;;;;;;;9.95;7.40;;;;;;;20.46;63.15;100539.72;10422992;28;20038;-66
2021/07/05 21:17:43;;;;;;;8.57;7.20;;;;;;;18.66;64.01;100284.69;10422178;28;20558;-67
2021/07/05 21:22:43;;;;;;;8.63;7.75;;;;;;;19.15;65.31;100377.72;10403814;28;20029;-67
2021/07/05 21:27:44;;;;;;;6.53;6.00;;;;;;;19.07;66.41;100397.41;10422130;28;20033;-66
2021/07/05 21:32:45;;;;;;;9.32;8.35;;;;;;;19.44;66.12;100423.97;10421331;28;20041;-68
2021/07/05 21:37:45;;;;;;;9.13;8.20;;;;;;;20.06;65.15;100497.28;10420044;28;20053;-68
2021/07/05 21:42:46;;;;;;;11.45;10.30;;;;;;;19.63;66.99;100485.56;10421820;28;20041;-67
2021/07/05 21:47:46;;;;;;;11.35;9.32;;;;;;;18.53;68.70;100345.47;10421431;28;20034;-67
2021/07/05 21:52:47;;;;;;;14.00;10.55;;;;;;;18.88;71.80;100511.44;10420478;28;20080;-64
2021/07/05 21:57:47;;;;;;;10.82;9.57;;;;;;;19.53;69.45;100504.75;10419943;28;20032;-65
2021/07/05 22:02:48;;;;;;;12.45;10.70;;;;;;;19.64;69.30;100511.97;10402897;28;20481;-64
2021/07/05 22:07:48;;;;;;;10.60;9.63;;;;;;;19.23;71.85;100489.72;10421904;28;20045;-65
2021/07/05 22:12:49;;;;;;;13.05;7.50;;;;;;;19.12;72.49;100492.69;10419519;28;20503;-65
2021/07/05 22:17:50;;;;;;;8.35;7.55;;;;;;;19.18;72.31;100481.47;10355740;28;20161;-67
2021/07/05 22:22:51;;;;;;;8.90;8.20;;;;;;;19.07;72.60;100455.03;10397886;28;20068;-66
2021/07/05 22:27:52;;;;;;;7.95;7.28;;;;;;;18.31;72.92;100335.47;10418827;28;20041;-66
2021/07/05 22:32:52;;;;;;;14.18;8.90;;;;;;;19.17;71.72;100446.03;10418957;28;20037;-66
2021/07/05 22:37:53;;;;;;;9.27;8.00;;;;;;;19.19;72.24;100441.94;10401774;28;20053;-67
2021/07/05 22:42:53;;;;;;;11.13;8.45;;;;;;;19.15;72.76;100432.59;10419461;28;20044;-66
2021/07/05 22:47:54;;;;;;;7.55;6.88;;;;;;;19.13;72.57;100420.22;10418146;28;20064;-68
2021/07/05 22:52:54;;;;;;;22.83;8.55;;;;;;;19.26;72.63;100417.81;10400398;28;20044;-66
2021/07/05 22:57:55;;;;;;;10.95;7.75;;;;;;;18.75;72.28;100310.53;10417609;28;20036;-69
2021/07/05 23:02:57;;;;;;;11.63;7.95;;;;;;;19.22;72.95;100408.47;10418664;28;20030;-66
2021/07/05 23:08:01;;;;;;;10.65;9.43;;;;;;;19.44;71.60;100405.56;10417208;28;20045;-67
2021/07/05 23:13:01;;;;;;;14.55;8.90;;;;;;;19.39;71.88;100394.53;10418078;28;20042;-67
2021/07/05 23:18:02;;;;;;;9.07;7.53;;;;;;;18.68;71.39;100249.59;10418063;28;20095;-67
2021/07/05 23:23:02;;;;;;;13.40;8.48;;;;;;;19.52;71.59;100398.72;10416077;28;20433;-68
2021/07/05 23:28:05;;;;;;;7.38;6.78;;;;;;;19.60;71.51;100397.38;10416591;28;20112;-66
2021/07/05 23:33:05;;;;;;;9.40;8.10;;;;;;;19.22;72.50;100356.31;10416141;28;20034;-67
2021/07/05 23:38:06;;;;;;;8.07;7.35;;;;;;;19.32;72.51;100366.50;10415999;28;20091;-66
2021/07/05 23:43:06;;;;;;;8.65;7.80;;;;;;;19.31;72.12;100370.38;10416254;28;20033;-67
2021/07/05 23:48:07;;;;;;;8.68;6.85;;;;;;;19.36;72.35;100369.53;10420643;28;20040;-66
2021/07/05 23:53:07;;;;;;;11.88;7.25;;;;;;;18.70;73.21;100283.06;10415917;28;20033;-66
2021/07/05 23:58:08;;;;;;;7.75;7.00;;;;;;;19.09;73.13;100334.88;10415098;28;20083;-66
